Time;durP1;ratioP1;P1;durP2;ratioP2;P2;SDS_P1;SDS_P2;PMS_P1;PMS_P2;Temp;Humidity;BMP_temperature;BMP_pressure;BME280_temperature;BME280_humidity;BME280_pressure;Samples;Min_cycle;Max_cycle;Signal;HPM_P1;HPM_P2
2024/04/09 00:01:37;;;;;;;;;;;;;;;8.44;73.58;93402.13;5457665;26;19936;-72
2024/04/09 00:04:03;;;;;;;;;;;;;;;8.52;73.85;93404.53;5463904;26;19935;-72
2024/04/09 00:06:28;;;;;;;;;;;;;;;8.52;73.97;93404.53;5471917;26;19996;-72
2024/04/09 00:08:55;;;;;;;;;;;;;;;8.55;73.88;93404.19;5472502;26;20001;-72
2024/04/09 00:11:21;;;;;;;;;;;;;;;8.54;73.32;93402.59;5464286;26;19928;-72
2024/04/09 00:13:51;;;;;;;;;;;;;;;8.51;73.66;93395.25;5476879;26;20272;-72
2024/04/09 00:16:21;;;;;;;;;;;;;;;8.49;73.95;93401.56;5472605;26;19936;-72
2024/04/09 00:18:48;;;;;;;;;;;;;;;8.45;73.31;93398.59;5476267;26;20356;-72
2024/04/09 00:21:13;;;;;;;;;;;;;;;8.40;74.56;93388.13;5473361;26;19928;-72
2024/04/09 00:23:39;;;;;;;;;;;;;;;8.32;74.38;93393.44;5473980;26;19939;-72
2024/04/09 00:26:05;;;;;;;;;;;;;;;8.28;74.51;93386.13;5473119;26;19955;-72
2024/04/09 00:28:30;;;;;;;;;;;;;;;8.26;74.45;93393.22;5473981;26;19928;-72
2024/04/09 00:30:56;;;;;;;;;;;;;;;8.25;75.40;93385.72;5472854;26;20084;-72
2024/04/09 00:33:23;;;;;;;;;;;;;;;8.18;75.74;93382.34;5450123;26;19936;-72
2024/04/09 00:35:51;;;;;;;;;;;;;;;8.12;76.48;93382.13;5472935;26;19940;-72
2024/04/09 00:38:19;;;;;;;;;;;;;;;8.09;76.56;93385.06;5472329;26;19929;-72
2024/04/09 00:40:45;;;;;;;;;;;;;;;8.15;75.72;93379.16;5473169;26;19928;-72
2024/04/09 00:43:12;;;;;;;;;;;;;;;8.08;75.37;93382.66;5472384;26;20425;-72
2024/04/09 00:45:38;;;;;;;;;;;;;;;8.01;75.64;93382.66;5475891;26;19940;-72
2024/04/09 00:48:04;;;;;;;;;;;;;;;7.92;76.36;93373.56;5469386;26;19928;-72
2024/04/09 00:50:29;;;;;;;;;;;;;;;7.86;76.50;93375.88;5474203;26;19956;-72
2024/04/09 00:52:58;;;;;;;;;;;;;;;7.86;76.88;93382.75;5472540;26;19928;-72
2024/04/09 00:55:26;;;;;;;;;;;;;;;7.78;77.36;93376.03;5472897;26;19929;-72
2024/04/09 00:57:52;;;;;;;;;;;;;;;7.75;77.13;93374.66;5471787;26;19935;-72
2024/04/09 01:00:19;;;;;;;;;;;;;;;7.77;77.13;93379.56;5470721;26;20372;-72
2024/04/09 01:02:48;;;;;;;;;;;;;;;7.83;78.09;93383.91;5470796;26;20017;-72
2024/04/09 01:05:14;;;;;;;;;;;;;;;7.84;77.10;93377.03;5470443;26;19952;-72
2024/04/09 01:07:39;;;;;;;;;;;;;;;7.87;76.38;93389.47;5473085;26;19928;-72
2024/04/09 01:10:05;;;;;;;;;;;;;;;7.84;76.20;93390.63;5471881;26;19936;-72
2024/04/09 01:12:30;;;;;;;;;;;;;;;7.81;76.26;93388.44;5474884;26;19939;-72
2024/04/09 01:14:56;;;;;;;;;;;;;;;7.79;76.40;93382.75;5470558;26;19928;-72
2024/04/09 01:17:21;;;;;;;;;;;;;;;7.77;76.99;93379.56;5470775;26;19938;-72
2024/04/09 01:19:46;;;;;;;;;;;;;;;7.73;77.83;93380.94;5471893;26;20307;-72
2024/04/09 01:22:12;;;;;;;;;;;;;;;7.68;78.42;93373.81;5467713;26;19996;-72
2024/04/09 01:24:37;;;;;;;;;;;;;;;7.66;78.05;93378.31;5474884;26;19935;-72
2024/04/09 01:27:12;;;;;;;;;;;;;;;7.61;77.87;93375.53;5468095;26;19963;-72
2024/04/09 01:29:38;;;;;;;;;;;;;;;7.58;78.32;93376.69;5472254;26;19976;-72
2024/04/09 01:32:06;;;;;;;;;;;;;;;7.61;78.44;93371.22;5470817;26;19928;-72
2024/04/09 01:34:32;;;;;;;;;;;;;;;7.53;77.87;93378.22;5471393;26;20418;-72
2024/04/09 01:37:00;;;;;;;;;;;;;;;7.40;77.54;93374.59;5470652;26;19933;-72
2024/04/09 01:39:27;;;;;;;;;;;;;;;7.36;77.34;93373.38;5470816;26;19929;-72
2024/04/09 01:41:52;;;;;;;;;;;;;;;7.33;78.21;93371.22;5467650;26;19928;-72
2024/04/09 01:44:18;;;;;;;;;;;;;;;7.25;78.45;93363.66;5465255;26;20276;-72
2024/04/09 01:46:43;;;;;;;;;;;;;;;7.25;79.22;93363.66;5471395;26;20016;-72
2024/04/09 01:49:08;;;;;;;;;;;;;;;7.14;79.40;93373.44;5465393;26;19928;-72
2024/04/09 01:51:34;;;;;;;;;;;;;;;7.09;79.12;93368.09;5471764;26;19928;-72
2024/04/09 01:53:59;;;;;;;;;;;;;;;7.05;80.18;93369.44;5473048;26;19935;-72
2024/04/09 01:56:25;;;;;;;;;;;;;;;7.05;79.69;93364.31;5470300;26;19960;-72
2024/04/09 01:58:51;;;;;;;;;;;;;;;7.03;79.42;93368.81;5468206;26;19947;-71
2024/04/09 02:01:18;;;;;;;;;;;;;;;7.02;79.72;93360.38;5448018;26;19928;-71
2024/04/09 02:03:47;;;;;;;;;;;;;;;7.01;80.25;93366.44;5447520;26;20289;-71
2024/04/09 02:06:15;;;;;;;;;;;;;;;7.01;80.05;93361.34;5456129;26;20086;-72
2024/04/09 02:08:41;;;;;;;;;;;;;;;7.03;80.52;93363.72;5447806;26;19986;-72
2024/04/09 02:11:06;;;;;;;;;;;;;;;6.99;80.47;93359.94;5455596;26;19940;-71
2024/04/09 02:13:31;;;;;;;;;;;;;;;6.94;80.69;93361.28;5447314;26;20060;-71
2024/04/09 02:15:58;;;;;;;;;;;;;;;6.95;80.19;93359.53;5448188;26;20217;-71
2024/04/09 02:18:25;;;;;;;;;;;;;;;6.95;80.53;93359.53;5454124;26;19932;-72
2024/04/09 02:20:50;;;;;;;;;;;;;;;6.91;81.06;93364.19;5447760;26;19997;-72
2024/04/09 02:23:15;;;;;;;;;;;;;;;6.89;81.14;93363.59;5447513;26;19928;-71
2024/04/09 02:25:41;;;;;;;;;;;;;;;6.89;81.57;93360.25;5447736;26;20283;-71
2024/04/09 02:28:06;;;;;;;;;;;;;;;6.86;82.16;93358.06;5454435;26;19929;-71
2024/04/09 02:30:32;;;;;;;;;;;;;;;6.81;82.50;93351.72;5447417;26;19937;-71
2024/04/09 02:32:58;;;;;;;;;;;;;;;6.81;82.04;93356.06;5455238;26;20389;-71
2024/04/09 02:35:24;;;;;;;;;;;;;;;6.75;82.63;93351.69;5463149;26;19928;-72
2024/04/09 02:37:49;;;;;;;;;;;;;;;6.67;83.47;93343.16;5447470;26;19929;-71
2024/04/09 02:40:15;;;;;;;;;;;;;;;6.58;84.91;93343.47;5465346;26;20387;-72
2024/04/09 02:42:42;;;;;;;;;;;;;;;6.44;86.34;93347.63;5450304;26;19929;-72
2024/04/09 02:45:09;;;;;;;;;;;;;;;6.31;87.61;93345.72;5446960;26;19928;-72
2024/04/09 02:47:34;;;;;;;;;;;;;;;6.34;87.46;93347.94;5447101;26;19953;-72
2024/04/09 02:49:59;;;;;;;;;;;;;;;6.36;88.13;93346.78;5454031;26;19928;-72
2024/04/09 02:52:26;;;;;;;;;;;;;;;6.31;89.85;93340.63;5446696;26;19935;-73
2024/04/09 02:54:51;;;;;;;;;;;;;;;6.36;88.05;93344.25;5447111;26;19932;-73
2024/04/09 02:57:16;;;;;;;;;;;;;;;6.47;87.09;93340.41;5453591;26;20295;-73
2024/04/09 02:59:42;;;;;;;;;;;;;;;6.50;86.51;93347.72;5447732;26;19932;-72
2024/04/09 03:02:07;;;;;;;;;;;;;;;6.45;86.28;93344.91;5450554;26;19940;-73
2024/04/09 03:04:32;;;;;;;;;;;;;;;6.43;84.54;93343.50;5458385;26;19936;-72
2024/04/09 03:06:58;;;;;;;;;;;;;;;6.44;84.10;93343.34;5458595;26;20703;-72
2024/04/09 03:09:23;;;;;;;;;;;;;;;6.35;84.16;93346.97;5457525;26;19928;-72
2024/04/09 03:11:48;;;;;;;;;;;;;;;6.32;84.16;93340.47;5452374;26;19928;-73
2024/04/09 03:14:14;;;;;;;;;;;;;;;6.34;83.89;93340.28;5449781;26;19943;-72
2024/04/09 03:16:39;;;;;;;;;;;;;;;6.27;83.72;93335.09;5450400;26;19935;-73
2024/04/09 03:19:04;;;;;;;;;;;;;;;6.26;83.68;93344.50;5449860;26;19936;-72
2024/04/09 03:21:29;;;;;;;;;;;;;;;6.27;83.29;93343.56;5450089;26;19928;-72
2024/04/09 03:23:55;;;;;;;;;;;;;;;6.20;83.21;93349.56;5455736;26;19956;-72
2024/04/09 03:26:20;;;;;;;;;;;;;;;6.15;83.32;93352.63;5463811;26;20379;-72
2024/04/09 03:28:46;;;;;;;;;;;;;;;6.12;83.86;93351.22;5457836;26;19928;-72
2024/04/09 03:31:11;;;;;;;;;;;;;;;6.07;84.29;93342.53;5450191;26;19928;-72
2024/04/09 03:33:37;;;;;;;;;;;;;;;6.04;84.26;93343.69;5471420;26;19936;-73
2024/04/09 03:36:04;;;;;;;;;;;;;;;6.13;83.58;93347.72;5458056;26;20004;-72
2024/04/09 03:38:29;;;;;;;;;;;;;;;6.18;83.28;93347.16;5458546;26;19929;-72
2024/04/09 03:40:55;;;;;;;;;;;;;;;6.19;83.59;93347.94;5455718;26;20280;-72
2024/04/09 03:43:21;;;;;;;;;;;;;;;6.15;83.73;93344.97;5449311;26;19935;-72
2024/04/09 03:46:01;;;;;;;;;;;;;;;6.13;83.60;93347.72;5457544;26;19940;-72
2024/04/09 03:48:27;;;;;;;;;;;;;;;6.11;83.95;93353.97;5458203;26;19935;-72
2024/04/09 03:50:52;;;;;;;;;;;;;;;6.04;83.64;93353.06;5457772;26;19929;-72
2024/04/09 03:53:17;;;;;;;;;;;;;;;5.97;83.95;93355.53;5462111;26;19953;-72
2024/04/09 03:55:52;;;;;;;;;;;;;;;5.88;84.05;93358.16;5479951;26;19928;-72
2024/04/09 03:58:17;;;;;;;;;;;;;;;5.82;84.44;93361.41;5453238;26;19928;-72
2024/04/09 04:00:53;;;;;;;;;;;;;;;5.79;85.64;93363.53;5452252;26;19935;-72
2024/04/09 04:03:19;;;;;;;;;;;;;;;5.74;87.03;93367.38;5453498;26;19928;-72
2024/04/09 04:05:49;;;;;;;;;;;;;;;5.75;87.98;93363.09;5449296;26;20679;-73
2024/04/09 04:08:14;;;;;;;;;;;;;;;5.77;88.08;93366.25;5450781;26;19941;-73
2024/04/09 04:10:40;;;;;;;;;;;;;;;5.79;88.06;93364.31;5459702;26;19936;-72
2024/04/09 04:13:05;;;;;;;;;;;;;;;5.83;87.16;93364.78;5449184;26;19936;-73
2024/04/09 04:15:30;;;;;;;;;;;;;;;5.86;85.67;93372.06;5459291;26;19976;-73
2024/04/09 04:17:55;;;;;;;;;;;;;;;5.92;86.53;93376.44;5472495;26;20380;-72
2024/04/09 04:20:21;;;;;;;;;;;;;;;5.95;85.55;93381.19;5456859;26;20013;-72
2024/04/09 04:22:46;;;;;;;;;;;;;;;5.95;85.33;93382.94;5464438;26;19936;-73
2024/04/09 04:25:12;;;;;;;;;;;;;;;5.92;85.93;93390.97;5460608;26;19968;-74
2024/04/09 04:27:37;;;;;;;;;;;;;;;5.89;85.72;93387.78;5459643;26;19936;-73
2024/04/09 04:30:02;;;;;;;;;;;;;;;5.84;85.95;93384.97;5449269;26;19940;-73
2024/04/09 04:32:28;;;;;;;;;;;;;;;5.84;86.74;93387.50;5450760;26;20333;-73
2024/04/09 04:34:53;;;;;;;;;;;;;;;5.83;86.67;93390.25;5457257;26;19928;-73
2024/04/09 04:37:18;;;;;;;;;;;;;;;5.82;86.79;93386.09;5451655;26;19928;-73
2024/04/09 04:39:44;;;;;;;;;;;;;;;5.85;87.41;93383.22;5453981;26;19928;-73
2024/04/09 04:42:09;;;;;;;;;;;;;;;5.87;87.72;93378.72;5452477;26;20244;-73
2024/04/09 04:44:35;;;;;;;;;;;;;;;5.94;87.84;93386.47;5452916;26;19936;-73
2024/04/09 04:47:01;;;;;;;;;;;;;;;6.01;87.21;93388.13;5455317;26;19962;-72
2024/04/09 04:49:26;;;;;;;;;;;;;;;6.07;86.76;93379.00;5449315;26;19960;-73
2024/04/09 04:51:52;;;;;;;;;;;;;;;6.07;86.61;93394.31;5448302;26;19935;-73
2024/04/09 04:54:17;;;;;;;;;;;;;;;6.14;85.25;93389.28;5455677;26;20845;-72
2024/04/09 04:56:43;;;;;;;;;;;;;;;6.15;84.81;93385.78;5456781;26;19968;-73
2024/04/09 04:59:08;;;;;;;;;;;;;;;6.20;85.08;93390.34;5448840;26;19939;-72
2024/04/09 05:01:34;;;;;;;;;;;;;;;6.26;85.19;93390.41;5449286;26;19928;-72
2024/04/09 05:03:59;;;;;;;;;;;;;;;6.37;85.15;93396.84;5452112;26;19928;-73
2024/04/09 05:06:24;;;;;;;;;;;;;;;6.45;84.92;93393.41;5453694;26;19936;-73
2024/04/09 05:08:50;;;;;;;;;;;;;;;6.64;84.17;93397.13;5454385;26;20242;-73
2024/04/09 05:11:16;;;;;;;;;;;;;;;6.79;83.28;93396.28;5449027;26;19928;-73
2024/04/09 05:13:42;;;;;;;;;;;;;;;6.91;83.18;93394.81;5454166;26;19960;-73
2024/04/09 05:16:07;;;;;;;;;;;;;;;7.10;82.32;93395.22;5449667;26;19929;-72
2024/04/09 05:18:32;;;;;;;;;;;;;;;7.24;81.61;93393.56;5455608;26;20376;-73
2024/04/09 05:20:57;;;;;;;;;;;;;;;7.43;81.06;93391.34;5448132;26;19944;-72
2024/04/09 05:23:23;;;;;;;;;;;;;;;7.62;80.10;93380.47;5446314;26;20437;-72
2024/04/09 05:25:48;;;;;;;;;;;;;;;7.85;78.39;93384.53;5451966;26;19997;-72
2024/04/09 05:28:13;;;;;;;;;;;;;;;8.08;78.28;93385.22;5448180;26;19928;-73
2024/04/09 05:30:39;;;;;;;;;;;;;;;8.29;77.22;93385.13;5448131;26;19936;-72
2024/04/09 05:33:04;;;;;;;;;;;;;;;8.51;76.59;93384.22;5448078;26;19940;-73
2024/04/09 05:35:29;;;;;;;;;;;;;;;8.79;74.87;93379.00;5449956;26;20501;-72
2024/04/09 05:37:55;;;;;;;;;;;;;;;9.02;74.29;93377.09;5453114;26;19929;-73
2024/04/09 05:40:20;;;;;;;;;;;;;;;9.25;72.26;93378.50;5452691;26;19940;-72
2024/04/09 05:42:46;;;;;;;;;;;;;;;9.51;70.98;93374.31;5465497;26;19928;-72
2024/04/09 05:45:15;;;;;;;;;;;;;;;9.72;71.45;93368.97;5456169;26;21025;-73
2024/04/09 05:47:41;;;;;;;;;;;;;;;9.99;71.37;93379.19;5447895;26;20001;-72
2024/04/09 05:50:07;;;;;;;;;;;;;;;10.30;69.75;93376.91;5447734;26;19968;-72
2024/04/09 05:52:32;;;;;;;;;;;;;;;10.52;69.04;93376.66;5454371;26;19929;-72
2024/04/09 05:54:58;;;;;;;;;;;;;;;10.79;67.70;93369.59;5455421;26;19940;-72
2024/04/09 05:57:23;;;;;;;;;;;;;;;11.06;66.73;93374.56;5453869;26;20346;-73
2024/04/09 05:59:49;;;;;;;;;;;;;;;11.23;66.73;93368.94;5457388;26;19935;-71
2024/04/09 06:02:14;;;;;;;;;;;;;;;11.49;64.73;93367.16;5447354;26;19928;-71
2024/04/09 06:04:40;;;;;;;;;;;;;;;11.73;62.48;93377.63;5446797;26;20244;-71
2024/04/09 06:07:05;;;;;;;;;;;;;;;11.99;61.61;93384.28;5460075;26;19929;-71
2024/04/09 06:09:30;;;;;;;;;;;;;;;11.94;62.05;93379.00;5467142;26;20524;-71
2024/04/09 06:11:56;;;;;;;;;;;;;;;12.24;61.10;93385.25;5450895;26;19935;-71
2024/04/09 06:14:21;;;;;;;;;;;;;;;12.13;60.53;93386.78;5461741;26;20322;-71
2024/04/09 06:16:47;;;;;;;;;;;;;;;12.00;63.21;93380.72;5447971;26;19928;-71
2024/04/09 06:19:12;;;;;;;;;;;;;;;12.01;63.71;93381.50;5448204;26;20400;-71
2024/04/09 06:21:38;;;;;;;;;;;;;;;11.92;64.55;93383.56;5447457;26;19928;-71
2024/04/09 06:24:03;;;;;;;;;;;;;;;12.06;63.90;93383.47;5447214;26;19936;-71
2024/04/09 06:26:28;;;;;;;;;;;;;;;12.01;62.25;93389.22;5447315;26;19935;-71
2024/04/09 06:28:54;;;;;;;;;;;;;;;12.25;62.82;93379.91;5447715;26;20361;-71
2024/04/09 06:31:19;;;;;;;;;;;;;;;12.79;61.74;93383.63;5448821;26;19933;-71
2024/04/09 06:33:46;;;;;;;;;;;;;;;13.27;61.02;93383.72;5445489;26;19937;-71
2024/04/09 06:36:12;;;;;;;;;;;;;;;13.59;59.76;93371.34;5454467;26;19928;-71
2024/04/09 06:38:37;;;;;;;;;;;;;;;14.11;57.46;93372.44;5456079;26;19940;-71
2024/04/09 06:41:02;;;;;;;;;;;;;;;14.43;55.39;93369.47;5492511;26;19934;-71
2024/04/09 06:43:28;;;;;;;;;;;;;;;13.96;54.41;93377.28;5465047;26;19936;-72
2024/04/09 06:45:53;;;;;;;;;;;;;;;13.87;55.54;93371.69;5461838;26;19936;-71
2024/04/09 06:48:18;;;;;;;;;;;;;;;13.97;56.12;93369.31;5467789;26;20008;-71
2024/04/09 06:50:44;;;;;;;;;;;;;;;14.19;54.22;93373.91;5467924;26;19932;-71
2024/04/09 06:53:09;;;;;;;;;;;;;;;14.09;54.79;93365.94;5472822;26;20305;-71
2024/04/09 06:55:34;;;;;;;;;;;;;;;14.29;54.86;93374.09;5467380;26;20314;-71
2024/04/09 06:57:59;;;;;;;;;;;;;;;14.16;54.23;93371.75;5463002;26;20408;-71
2024/04/09 07:00:25;;;;;;;;;;;;;;;14.52;54.51;93371.66;5479566;26;19996;-71
2024/04/09 07:02:52;;;;;;;;;;;;;;;15.08;54.04;93363.38;5467811;26;20334;-71
2024/04/09 07:05:18;;;;;;;;;;;;;;;14.75;54.12;93367.47;5466636;26;20361;-71
2024/04/09 07:07:43;;;;;;;;;;;;;;;15.17;52.65;93366.34;5466707;26;19929;-71
2024/04/09 07:10:08;;;;;;;;;;;;;;;15.50;53.98;93368.19;5476604;26;19928;-71
2024/04/09 07:12:34;;;;;;;;;;;;;;;15.75;51.89;93366.19;5465743;26;19928;-71
2024/04/09 07:15:00;;;;;;;;;;;;;;;15.72;50.38;93364.88;5469553;26;20444;-71
2024/04/09 07:17:25;;;;;;;;;;;;;;;15.66;52.86;93359.84;5464089;26;20353;-71
2024/04/09 07:19:51;;;;;;;;;;;;;;;16.25;53.69;93354.16;5468107;26;19936;-71
2024/04/09 07:22:16;;;;;;;;;;;;;;;16.84;49.64;93354.53;5472891;26;20610;-71
2024/04/09 07:24:43;;;;;;;;;;;;;;;17.28;50.05;93358.06;5470371;26;19935;-72
2024/04/09 07:27:09;;;;;;;;;;;;;;;16.75;46.48;93353.41;5476201;26;20325;-72
2024/04/09 07:29:34;;;;;;;;;;;;;;;17.09;47.35;93350.66;5470218;26;19995;-71
2024/04/09 07:32:00;;;;;;;;;;;;;;;17.06;48.07;93356.31;5478355;26;19996;-72
2024/04/09 07:34:25;;;;;;;;;;;;;;;17.56;47.94;93353.59;5468201;26;19968;-71
2024/04/09 07:36:50;;;;;;;;;;;;;;;17.76;45.02;93355.53;5458535;26;19960;-71
2024/04/09 07:39:16;;;;;;;;;;;;;;;17.76;45.41;93355.53;5453551;26;20012;-71
2024/04/09 07:41:41;;;;;;;;;;;;;;;17.35;44.81;93358.63;5461172;26;19944;-71
2024/04/09 07:44:07;;;;;;;;;;;;;;;17.73;44.73;93362.00;5449905;26;20001;-72
2024/04/09 07:46:32;;;;;;;;;;;;;;;18.26;44.25;93350.09;5449170;26;20370;-72
2024/04/09 07:49:00;;;;;;;;;;;;;;;18.43;43.36;93347.31;5451654;26;19986;-72
2024/04/09 07:51:25;;;;;;;;;;;;;;;18.33;42.58;93347.28;5451298;26;20234;-72
2024/04/09 07:53:51;;;;;;;;;;;;;;;18.58;43.10;93346.56;5451915;26;19933;-71
2024/04/09 07:56:17;;;;;;;;;;;;;;;19.11;39.17;93342.28;5463475;26;19932;-72
2024/04/09 07:58:42;;;;;;;;;;;;;;;19.43;39.38;93341.22;5456864;26;20001;-72
2024/04/09 08:01:08;;;;;;;;;;;;;;;19.78;39.56;93337.00;5455357;26;19928;-72
2024/04/09 08:03:33;;;;;;;;;;;;;;;20.07;40.41;93336.44;5451580;26;20368;-72
2024/04/09 08:05:58;;;;;;;;;;;;;;;20.20;37.97;93337.72;5450696;26;19934;-72
2024/04/09 08:08:24;;;;;;;;;;;;;;;20.66;39.90;93330.72;5455867;26;19944;-71
2024/04/09 08:10:49;;;;;;;;;;;;;;;21.05;38.74;93329.97;5455884;26;19929;-72
2024/04/09 08:13:14;;;;;;;;;;;;;;;20.58;37.79;93329.44;5452527;26;19929;-72
2024/04/09 08:15:40;;;;;;;;;;;;;;;21.03;38.63;93328.69;5463241;26;20353;-72
2024/04/09 08:18:05;;;;;;;;;;;;;;;19.81;38.70;93325.28;5479421;26;20323;-72
2024/04/09 08:20:31;;;;;;;;;;;;;;;20.38;39.19;93318.09;5479799;26;20333;-72
2024/04/09 08:22:56;;;;;;;;;;;;;;;20.10;40.12;93320.28;5469556;26;19932;-71
2024/04/09 08:25:22;;;;;;;;;;;;;;;19.71;39.06;93324.25;5448895;26;19997;-72
2024/04/09 08:27:47;;;;;;;;;;;;;;;20.14;38.99;93318.69;5449304;26;19929;-72
2024/04/09 08:30:14;;;;;;;;;;;;;;;20.34;38.27;93314.44;5450289;26;19941;-71
2024/04/09 08:32:40;;;;;;;;;;;;;;;20.70;37.98;93313.47;5448925;26;19936;-72
2024/04/09 08:35:05;;;;;;;;;;;;;;;21.20;39.59;93305.56;5448583;26;19928;-72
2024/04/09 08:37:31;;;;;;;;;;;;;;;21.62;37.11;93300.75;5459813;26;19928;-72
2024/04/09 08:39:56;;;;;;;;;;;;;;;21.81;36.59;93301.94;5448473;26;20260;-72
2024/04/09 08:42:26;;;;;;;;;;;;;;;22.16;38.56;93289.50;5451109;26;19932;-72
2024/04/09 08:44:55;;;;;;;;;;;;;;;22.33;37.96;93285.63;5452483;26;19939;-72
2024/04/09 08:47:21;;;;;;;;;;;;;;;22.71;37.27;93285.69;5453910;26;20249;-71
2024/04/09 08:49:49;;;;;;;;;;;;;;;23.08;36.52;93288.53;5451479;26;19934;-72
2024/04/09 08:52:18;;;;;;;;;;;;;;;23.43;35.67;93277.78;5459711;26;19950;-72
2024/04/09 08:54:43;;;;;;;;;;;;;;;23.76;35.83;93283.75;5457429;26;19997;-72
2024/04/09 08:57:08;;;;;;;;;;;;;;;23.37;34.27;93277.09;5451346;26;19940;-72
2024/04/09 08:59:35;;;;;;;;;;;;;;;23.22;34.20;93276.28;5469404;26;19973;-72
2024/04/09 09:02:06;;;;;;;;;;;;;;;23.62;36.17;93275.09;5462104;26;19929;-72
2024/04/09 09:04:38;;;;;;;;;;;;;;;23.22;32.73;93273.66;5453004;26;19928;-72
2024/04/09 09:07:24;;;;;;;;;;;;;;;23.33;33.88;93276.13;5451854;26;19939;-72
2024/04/09 09:09:50;;;;;;;;;;;;;;;23.95;34.14;93275.03;5447960;26;19928;-71
2024/04/09 09:12:15;;;;;;;;;;;;;;;24.31;33.90;93272.78;5450208;26;19936;-72
2024/04/09 09:15:04;;;;;;;;;;;;;;;24.35;32.21;93266.63;5450276;26;19957;-72
2024/04/09 09:17:30;;;;;;;;;;;;;;;24.31;34.84;93265.69;5466789;26;19996;-71
2024/04/09 09:20:08;;;;;;;;;;;;;;;24.31;34.43;93255.19;5448134;26;19929;-71
2024/04/09 09:22:41;;;;;;;;;;;;;;;24.66;32.87;93258.09;5448952;26;20279;-72
2024/04/09 09:25:13;;;;;;;;;;;;;;;24.82;33.85;93260.41;5451269;26;20001;-72
2024/04/09 09:27:38;;;;;;;;;;;;;;;24.95;33.05;93254.31;5453496;26;19956;-72
2024/04/09 09:30:04;;;;;;;;;;;;;;;25.07;33.03;93260.88;5450188;26;20380;-72
2024/04/09 09:32:30;;;;;;;;;;;;;;;25.31;32.97;93257.16;5450914;26;20526;-72
2024/04/09 09:34:57;;;;;;;;;;;;;;;25.56;33.14;93245.25;5478517;26;20021;-72
2024/04/09 09:37:25;;;;;;;;;;;;;;;25.84;33.05;93250.31;5452178;26;19928;-72
2024/04/09 09:39:51;;;;;;;;;;;;;;;25.17;32.19;93249.34;5454073;26;19928;-72
2024/04/09 09:42:17;;;;;;;;;;;;;;;25.03;31.98;93241.53;5463207;26;19948;-72
2024/04/09 09:44:44;;;;;;;;;;;;;;;24.70;34.32;93237.25;5447896;26;19999;-72
2024/04/09 09:47:10;;;;;;;;;;;;;;;24.47;34.61;93226.75;5448597;26;19936;-72
2024/04/09 09:49:35;;;;;;;;;;;;;;;23.87;34.06;93231.09;5457687;26;19928;-72
2024/04/09 09:52:07;;;;;;;;;;;;;;;24.73;34.66;93223.56;5449321;26;19928;-72
2024/04/09 09:54:32;;;;;;;;;;;;;;;24.05;34.04;93223.41;5453219;26;19936;-72
2024/04/09 09:57:02;;;;;;;;;;;;;;;23.40;34.47;93223.31;5447651;26;19928;-72
2024/04/09 09:59:42;;;;;;;;;;;;;;;23.36;33.31;93225.75;5449677;26;19936;-72
2024/04/09 10:02:08;;;;;;;;;;;;;;;23.23;33.81;93220.16;5448035;26;20361;-72
2024/04/09 10:04:36;;;;;;;;;;;;;;;23.64;35.20;93220.53;5447793;26;20017;-72
2024/04/09 10:07:03;;;;;;;;;;;;;;;24.42;34.96;93222.41;5450929;26;20260;-72
2024/04/09 10:09:46;;;;;;;;;;;;;;;24.79;32.59;93209.22;5452690;26;19928;-72
2024/04/09 10:12:34;;;;;;;;;;;;;;;25.10;32.33;93218.25;5452546;26;19932;-73
2024/04/09 10:15:02;;;;;;;;;;;;;;;24.65;32.27;93217.16;5462217;26;19987;-72
2024/04/09 10:17:44;;;;;;;;;;;;;;;25.29;33.20;93212.78;5460502;26;19928;-72
2024/04/09 10:20:30;;;;;;;;;;;;;;;25.44;31.34;93210.81;5453066;26;20165;-72
2024/04/09 10:22:57;;;;;;;;;;;;;;;24.55;31.61;93206.88;5451888;26;19935;-72
2024/04/09 10:25:23;;;;;;;;;;;;;;;24.29;32.91;93205.59;5456585;26;19928;-72
2024/04/09 10:28:02;;;;;;;;;;;;;;;24.09;33.27;93204.19;5452344;26;20948;-72
2024/04/09 10:30:28;;;;;;;;;;;;;;;24.04;35.07;93193.78;5453248;26;19931;-72
2024/04/09 10:32:57;;;;;;;;;;;;;;;23.43;35.63;93194.69;5459577;26;19928;-72
2024/04/09 10:35:23;;;;;;;;;;;;;;;23.96;35.40;93197.09;5455875;26;19947;-72
2024/04/09 10:37:53;;;;;;;;;;;;;;;24.26;34.34;93194.94;5449256;26;19928;-72
2024/04/09 10:40:18;;;;;;;;;;;;;;;24.24;30.18;93204.94;5468332;26;19934;-72
2024/04/09 10:42:44;;;;;;;;;;;;;;;24.57;28.44;93198.72;5459158;26;19932;-72
2024/04/09 10:45:09;;;;;;;;;;;;;;;24.54;28.30;93197.47;5455507;26;20276;-72
2024/04/09 10:47:34;;;;;;;;;;;;;;;24.90;28.37;93190.63;5456151;26;19928;-73
2024/04/09 10:50:02;;;;;;;;;;;;;;;25.32;28.77;93191.13;5460197;26;19935;-73
2024/04/09 10:52:27;;;;;;;;;;;;;;;25.45;27.65;93184.22;5458204;26;19936;-73
2024/04/09 10:54:54;;;;;;;;;;;;;;;24.46;27.14;93185.81;5453637;26;20459;-73
2024/04/09 10:57:19;;;;;;;;;;;;;;;24.60;27.95;93184.97;5461826;26;19936;-72
2024/04/09 10:59:46;;;;;;;;;;;;;;;24.82;28.24;93182.38;5459153;26;19929;-72
2024/04/09 11:02:11;;;;;;;;;;;;;;;24.74;27.96;93180.44;5452552;26;19939;-72
2024/04/09 11:04:37;;;;;;;;;;;;;;;24.91;27.57;93161.41;5456166;26;20588;-72
2024/04/09 11:07:03;;;;;;;;;;;;;;;25.69;28.70;93174.44;5449991;26;19964;-72
2024/04/09 11:09:29;;;;;;;;;;;;;;;26.28;27.36;93174.06;5450808;26;19931;-72
2024/04/09 11:11:55;;;;;;;;;;;;;;;26.57;24.27;93184.28;5452595;26;19996;-72
2024/04/09 11:14:20;;;;;;;;;;;;;;;26.53;24.96;93170.97;5451189;26;20291;-73
2024/04/09 11:16:46;;;;;;;;;;;;;;;26.78;24.39;93147.53;5454498;26;19928;-72
2024/04/09 11:19:11;;;;;;;;;;;;;;;26.73;22.40;93166.91;5450628;26;19935;-73
2024/04/09 11:21:37;;;;;;;;;;;;;;;26.20;23.94;93166.13;5448638;26;20301;-72
2024/04/09 11:24:04;;;;;;;;;;;;;;;25.99;22.75;93156.22;5456885;26;19974;-73
2024/04/09 11:26:29;;;;;;;;;;;;;;;25.45;21.87;93162.41;5456216;26;19928;-72
2024/04/09 11:28:54;;;;;;;;;;;;;;;25.39;22.09;93163.63;5457446;26;19938;-73
2024/04/09 11:31:23;;;;;;;;;;;;;;;26.13;24.90;93145.53;5453725;26;21034;-72
2024/04/09 11:33:49;;;;;;;;;;;;;;;26.20;21.38;93151.09;5462275;26;19934;-72
2024/04/09 11:36:14;;;;;;;;;;;;;;;25.55;22.99;93143.00;5454621;26;19928;-72
2024/04/09 11:38:41;;;;;;;;;;;;;;;24.51;21.13;93153.41;5453908;26;19976;-73
2024/04/09 11:41:06;;;;;;;;;;;;;;;25.28;21.69;93147.34;5453677;26;19928;-72
2024/04/09 11:43:31;;;;;;;;;;;;;;;25.12;22.00;93145.13;5455590;26;19991;-72
2024/04/09 11:46:00;;;;;;;;;;;;;;;25.23;23.17;93143.00;5456816;26;20432;-72
2024/04/09 11:48:25;;;;;;;;;;;;;;;25.28;21.71;93142.09;5460911;26;20375;-72
2024/04/09 11:53:37;;;;;;;;;;;;;;;24.67;20.90;93140.72;5455626;26;20601;-72
2024/04/09 11:56:03;;;;;;;;;;;;;;;24.59;20.34;93136.16;5455344;26;19935;-72
2024/04/09 11:58:28;;;;;;;;;;;;;;;24.86;20.00;93127.41;5457957;26;19929;-72
2024/04/09 12:00:55;;;;;;;;;;;;;;;24.98;20.63;93124.19;5461595;26;19958;-72
2024/04/09 12:03:22;;;;;;;;;;;;;;;25.38;21.58;93112.13;5460550;26;20000;-72
2024/04/09 12:05:47;;;;;;;;;;;;;;;25.64;19.02;93125.34;5452995;26;19929;-72
2024/04/09 12:08:12;;;;;;;;;;;;;;;25.69;19.83;93119.19;5459990;26;20549;-72
2024/04/09 12:10:38;;;;;;;;;;;;;;;25.45;18.37;93104.56;5456177;26;19936;-72
2024/04/09 12:13:04;;;;;;;;;;;;;;;25.42;19.09;93108.59;5451996;26;19928;-72
2024/04/09 12:15:29;;;;;;;;;;;;;;;24.95;17.14;93115.06;5458004;26;19928;-72
2024/04/09 12:17:55;;;;;;;;;;;;;;;24.82;16.82;93106.19;5451021;26;19932;-72
2024/04/09 12:20:20;;;;;;;;;;;;;;;24.95;17.68;93096.66;5460568;26;19952;-72
2024/04/09 12:22:46;;;;;;;;;;;;;;;25.04;17.98;93099.31;5464658;26;19935;-72
2024/04/09 12:25:11;;;;;;;;;;;;;;;24.76;16.63;93093.47;5476542;26;20365;-72
2024/04/09 12:27:37;;;;;;;;;;;;;;;24.39;17.67;93090.97;5452798;26;19935;-72
2024/04/09 12:30:02;;;;;;;;;;;;;;;24.76;18.22;93077.72;5458808;26;19935;-72
2024/04/09 12:32:28;;;;;;;;;;;;;;;24.66;17.40;93083.97;5456007;26;19929;-72
2024/04/09 12:34:53;;;;;;;;;;;;;;;25.09;18.76;93072.91;5463084;26;19939;-72
2024/04/09 12:37:18;;;;;;;;;;;;;;;25.11;18.54;93085.75;5453846;26;20304;-72
2024/04/09 12:39:44;;;;;;;;;;;;;;;24.71;18.94;93078.59;5450632;26;19936;-72
2024/04/09 12:42:09;;;;;;;;;;;;;;;24.71;19.72;93073.34;5458059;26;20284;-72
2024/04/09 12:44:35;;;;;;;;;;;;;;;25.09;19.46;93056.41;5452536;26;19935;-72
2024/04/09 12:47:01;;;;;;;;;;;;;;;24.90;19.78;93072.41;5466484;26;19952;-72
2024/04/09 12:49:28;;;;;;;;;;;;;;;24.53;20.38;93060.13;5482671;26;19935;-72